San Carlos, Arizona
Current Conditions -  °F | °C
As of 8:51 AM on Friday 24 Oct 2014 (Local Time) from KSAD Reporting Station
Clear Clear  
Wind Chill: 67°   Ceiling: Unl
Heat Index: 67°   Visibility: 10mi
Dew Point: 49°   Wind: 9mph
Humidity: 52%   Direction: 150°SSE
Pressure: 30.21"   Gusts: NA
Location:  33.35°N, 110.45°W
Report Text: KSAD 241551Z AUTO 15008KT 10SM CLR 19/09 A3021 RMK AO2 SLP196 T01940094
Loading
Personal Weather Stations






























Interactive Weather Map
Tropical Storm Tracking
New forecast layout! Learn more

10-Day Weather Forecast

Advertisements
Track Severe Weather on mobile